sensor_id;sensor_type;location;lat;lon;timestamp;P1;durP1;ratioP1;P2;durP2;ratioP2
16296;SDS011;8256;56.144;13.394;2023-06-10T00:00:12;0.60;;;0.10;;
16296;SDS011;8256;56.144;13.394;2023-06-10T00:03:00;0.60;;;0.10;;
16296;SDS011;8256;56.144;13.394;2023-06-10T00:05:47;0.60;;;0.10;;
16296;SDS011;8256;56.144;13.394;2023-06-10T00:08:32;0.50;;;0.10;;
16296;SDS011;8256;56.144;13.394;2023-06-10T00:11:18;0.50;;;0.10;;
16296;SDS011;8256;56.144;13.394;2023-06-10T00:14:04;0.50;;;0.10;;
16296;SDS011;8256;56.144;13.394;2023-06-10T00:16:49;0.43;;;0.10;;
16296;SDS011;8256;56.144;13.394;2023-06-10T00:19:38;0.50;;;0.10;;
16296;SDS011;8256;56.144;13.394;2023-06-10T00:22:26;0.47;;;0.10;;
16296;SDS011;8256;56.144;13.394;2023-06-10T00:25:14;0.40;;;0.10;;
16296;SDS011;8256;56.144;13.394;2023-06-10T00:28:00;0.50;;;0.10;;
16296;SDS011;8256;56.144;13.394;2023-06-10T00:30:46;0.68;;;0.10;;
16296;SDS011;8256;56.144;13.394;2023-06-10T00:33:31;0.50;;;0.10;;
16296;SDS011;8256;56.144;13.394;2023-06-10T00:36:17;0.40;;;0.10;;
16296;SDS011;8256;56.144;13.394;2023-06-10T00:39:03;0.82;;;0.20;;
16296;SDS011;8256;56.144;13.394;2023-06-10T00:41:49;0.80;;;0.25;;
16296;SDS011;8256;56.144;13.394;2023-06-10T00:44:35;0.77;;;0.20;;
16296;SDS011;8256;56.144;13.394;2023-06-10T00:47:21;0.70;;;0.10;;
16296;SDS011;8256;56.144;13.394;2023-06-10T00:50:07;0.60;;;0.10;;
16296;SDS011;8256;56.144;13.394;2023-06-10T00:52:53;0.60;;;0.10;;
16296;SDS011;8256;56.144;13.394;2023-06-10T00:55:40;0.40;;;0.10;;
16296;SDS011;8256;56.144;13.394;2023-06-10T00:58:26;0.60;;;0.10;;
16296;SDS011;8256;56.144;13.394;2023-06-10T01:01:11;0.60;;;0.10;;
16296;SDS011;8256;56.144;13.394;2023-06-10T01:03:57;0.50;;;0.10;;
16296;SDS011;8256;56.144;13.394;2023-06-10T01:09:41;0.50;;;0.10;;
16296;SDS011;8256;56.144;13.394;2023-06-10T01:12:41;0.40;;;0.10;;
16296;SDS011;8256;56.144;13.394;2023-06-10T01:15:34;0.47;;;0.10;;
16296;SDS011;8256;56.144;13.394;2023-06-10T01:18:20;1.87;;;0.30;;
16296;SDS011;8256;56.144;13.394;2023-06-10T01:21:07;0.40;;;0.10;;
16296;SDS011;8256;56.144;13.394;2023-06-10T01:23:54;0.50;;;0.10;;
16296;SDS011;8256;56.144;13.394;2023-06-10T01:26:41;0.40;;;0.10;;
16296;SDS011;8256;56.144;13.394;2023-06-10T01:29:32;0.40;;;0.10;;
16296;SDS011;8256;56.144;13.394;2023-06-10T01:32:21;0.40;;;0.10;;
16296;SDS011;8256;56.144;13.394;2023-06-10T01:35:10;0.43;;;0.10;;
16296;SDS011;8256;56.144;13.394;2023-06-10T01:37:57;0.40;;;0.10;;
16296;SDS011;8256;56.144;13.394;2023-06-10T01:40:43;0.50;;;0.10;;
16296;SDS011;8256;56.144;13.394;2023-06-10T01:43:32;0.50;;;0.10;;
16296;SDS011;8256;56.144;13.394;2023-06-10T01:46:17;0.50;;;0.10;;
16296;SDS011;8256;56.144;13.394;2023-06-10T01:49:05;0.60;;;0.10;;
16296;SDS011;8256;56.144;13.394;2023-06-10T01:51:50;0.50;;;0.10;;
16296;SDS011;8256;56.144;13.394;2023-06-10T01:54:36;0.47;;;0.10;;
16296;SDS011;8256;56.144;13.394;2023-06-10T01:57:21;0.50;;;0.10;;
16296;SDS011;8256;56.144;13.394;2023-06-10T02:00:07;0.70;;;0.20;;
16296;SDS011;8256;56.144;13.394;2023-06-10T02:02:53;0.40;;;0.10;;
16296;SDS011;8256;56.144;13.394;2023-06-10T02:05:39;0.40;;;0.10;;
16296;SDS011;8256;56.144;13.394;2023-06-10T02:08:24;0.50;;;0.10;;
16296;SDS011;8256;56.144;13.394;2023-06-10T02:11:10;0.60;;;0.10;;
16296;SDS011;8256;56.144;13.394;2023-06-10T02:13:55;0.40;;;0.10;;
16296;SDS011;8256;56.144;13.394;2023-06-10T02:16:41;0.40;;;0.10;;
16296;SDS011;8256;56.144;13.394;2023-06-10T02:19:26;0.50;;;0.10;;
16296;SDS011;8256;56.144;13.394;2023-06-10T02:22:12;0.40;;;0.10;;
16296;SDS011;8256;56.144;13.394;2023-06-10T02:24:58;0.40;;;0.10;;
16296;SDS011;8256;56.144;13.394;2023-06-10T02:27:44;0.40;;;0.10;;
16296;SDS011;8256;56.144;13.394;2023-06-10T02:30:29;0.60;;;0.20;;
16296;SDS011;8256;56.144;13.394;2023-06-10T02:33:15;0.40;;;0.10;;
16296;SDS011;8256;56.144;13.394;2023-06-10T02:36:02;0.45;;;0.10;;
16296;SDS011;8256;56.144;13.394;2023-06-10T02:38:49;0.55;;;0.10;;
16296;SDS011;8256;56.144;13.394;2023-06-10T02:41:34;0.40;;;0.10;;
16296;SDS011;8256;56.144;13.394;2023-06-10T02:44:20;0.40;;;0.10;;
16296;SDS011;8256;56.144;13.394;2023-06-10T02:47:06;0.40;;;0.10;;
16296;SDS011;8256;56.144;13.394;2023-06-10T02:49:51;0.40;;;0.10;;
16296;SDS011;8256;56.144;13.394;2023-06-10T02:52:37;0.50;;;0.10;;
16296;SDS011;8256;56.144;13.394;2023-06-10T02:55:23;0.40;;;0.10;;
16296;SDS011;8256;56.144;13.394;2023-06-10T02:58:11;0.40;;;0.10;;
16296;SDS011;8256;56.144;13.394;2023-06-10T03:00:57;0.43;;;0.10;;
16296;SDS011;8256;56.144;13.394;2023-06-10T03:03:43;0.43;;;0.10;;
16296;SDS011;8256;56.144;13.394;2023-06-10T03:06:29;0.50;;;0.10;;
16296;SDS011;8256;56.144;13.394;2023-06-10T03:09:15;0.43;;;0.10;;
16296;SDS011;8256;56.144;13.394;2023-06-10T03:12:00;0.50;;;0.10;;
16296;SDS011;8256;56.144;13.394;2023-06-10T03:14:46;0.50;;;0.10;;
16296;SDS011;8256;56.144;13.394;2023-06-10T03:17:31;0.40;;;0.10;;
16296;SDS011;8256;56.144;13.394;2023-06-10T03:20:17;0.50;;;0.10;;
16296;SDS011;8256;56.144;13.394;2023-06-10T03:23:06;0.40;;;0.10;;
16296;SDS011;8256;56.144;13.394;2023-06-10T03:25:51;0.40;;;0.10;;
16296;SDS011;8256;56.144;13.394;2023-06-10T03:28:38;0.32;;;0.10;;
16296;SDS011;8256;56.144;13.394;2023-06-10T03:31:23;0.70;;;0.22;;
16296;SDS011;8256;56.144;13.394;2023-06-10T03:34:10;0.70;;;0.20;;
16296;SDS011;8256;56.144;13.394;2023-06-10T03:36:55;0.70;;;0.20;;
16296;SDS011;8256;56.144;13.394;2023-06-10T03:39:41;0.70;;;0.20;;
16296;SDS011;8256;56.144;13.394;2023-06-10T03:42:27;0.50;;;0.10;;
16296;SDS011;8256;56.144;13.394;2023-06-10T03:45:12;0.43;;;0.10;;
16296;SDS011;8256;56.144;13.394;2023-06-10T03:47:58;0.73;;;0.13;;
16296;SDS011;8256;56.144;13.394;2023-06-10T03:50:43;0.40;;;0.10;;
16296;SDS011;8256;56.144;13.394;2023-06-10T03:53:29;0.60;;;0.10;;
16296;SDS011;8256;56.144;13.394;2023-06-10T03:56:15;1.13;;;0.30;;
16296;SDS011;8256;56.144;13.394;2023-06-10T03:59:00;0.45;;;0.10;;
16296;SDS011;8256;56.144;13.394;2023-06-10T04:01:46;0.50;;;0.10;;
16296;SDS011;8256;56.144;13.394;2023-06-10T04:04:32;0.60;;;0.10;;
16296;SDS011;8256;56.144;13.394;2023-06-10T04:07:17;1.05;;;0.45;;
16296;SDS011;8256;56.144;13.394;2023-06-10T04:10:06;0.65;;;0.13;;
16296;SDS011;8256;56.144;13.394;2023-06-10T04:12:52;0.90;;;0.20;;
16296;SDS011;8256;56.144;13.394;2023-06-10T04:15:37;1.10;;;0.20;;
16296;SDS011;8256;56.144;13.394;2023-06-10T04:18:23;1.00;;;0.20;;
16296;SDS011;8256;56.144;13.394;2023-06-10T04:21:09;1.33;;;0.40;;
16296;SDS011;8256;56.144;13.394;2023-06-10T04:23:54;1.23;;;0.30;;
16296;SDS011;8256;56.144;13.394;2023-06-10T04:26:40;1.80;;;0.40;;
16296;SDS011;8256;56.144;13.394;2023-06-10T04:29:25;1.33;;;0.30;;
16296;SDS011;8256;56.144;13.394;2023-06-10T04:32:11;1.53;;;0.43;;
16296;SDS011;8256;56.144;13.394;2023-06-10T04:34:57;1.40;;;0.40;;
16296;SDS011;8256;56.144;13.394;2023-06-10T04:37:43;1.48;;;0.40;;
16296;SDS011;8256;56.144;13.394;2023-06-10T04:40:28;1.73;;;0.45;;
16296;SDS011;8256;56.144;13.394;2023-06-10T04:43:14;1.30;;;0.40;;
16296;SDS011;8256;56.144;13.394;2023-06-10T04:46:00;1.20;;;0.30;;
16296;SDS011;8256;56.144;13.394;2023-06-10T04:48:45;1.33;;;0.38;;
16296;SDS011;8256;56.144;13.394;2023-06-10T04:51:32;1.23;;;0.30;;
16296;SDS011;8256;56.144;13.394;2023-06-10T04:54:18;1.38;;;0.30;;
16296;SDS011;8256;56.144;13.394;2023-06-10T04:57:03;1.30;;;0.30;;
16296;SDS011;8256;56.144;13.394;2023-06-10T04:59:49;1.50;;;0.40;;
16296;SDS011;8256;56.144;13.394;2023-06-10T05:02:34;1.00;;;0.20;;
16296;SDS011;8256;56.144;13.394;2023-06-10T05:05:20;1.27;;;0.30;;
16296;SDS011;8256;56.144;13.394;2023-06-10T05:08:06;1.20;;;0.30;;
16296;SDS011;8256;56.144;13.394;2023-06-10T05:10:51;1.17;;;0.30;;
16296;SDS011;8256;56.144;13.394;2023-06-10T05:13:37;1.20;;;0.30;;
16296;SDS011;8256;56.144;13.394;2023-06-10T05:16:25;1.40;;;0.40;;
16296;SDS011;8256;56.144;13.394;2023-06-10T05:19:11;1.30;;;0.30;;
16296;SDS011;8256;56.144;13.394;2023-06-10T05:22:15;1.10;;;0.30;;
16296;SDS011;8256;56.144;13.394;2023-06-10T05:25:15;1.30;;;0.30;;
16296;SDS011;8256;56.144;13.394;2023-06-10T05:28:07;6.00;;;0.60;;
16296;SDS011;8256;56.144;13.394;2023-06-10T05:31:01;1.15;;;0.30;;
16296;SDS011;8256;56.144;13.394;2023-06-10T05:33:50;1.65;;;0.57;;
16296;SDS011;8256;56.144;13.394;2023-06-10T05:36:36;1.30;;;0.30;;
16296;SDS011;8256;56.144;13.394;2023-06-10T05:39:51;1.10;;;0.30;;
16296;SDS011;8256;56.144;13.394;2023-06-10T05:42:58;1.87;;;0.63;;
16296;SDS011;8256;56.144;13.394;2023-06-10T05:46:10;1.23;;;0.30;;
16296;SDS011;8256;56.144;13.394;2023-06-10T05:49:13;1.40;;;0.35;;
16296;SDS011;8256;56.144;13.394;2023-06-10T05:51:59;0.80;;;0.20;;
16296;SDS011;8256;56.144;13.394;2023-06-10T05:58:11;1.20;;;0.40;;
16296;SDS011;8256;56.144;13.394;2023-06-10T06:01:03;2.20;;;0.80;;
16296;SDS011;8256;56.144;13.394;2023-06-10T06:03:52;1.10;;;0.20;;
16296;SDS011;8256;56.144;13.394;2023-06-10T06:06:59;1.20;;;0.30;;
16296;SDS011;8256;56.144;13.394;2023-06-10T06:09:50;1.35;;;0.30;;
16296;SDS011;8256;56.144;13.394;2023-06-10T06:12:35;1.53;;;0.30;;
16296;SDS011;8256;56.144;13.394;2023-06-10T06:15:21;1.08;;;0.20;;
16296;SDS011;8256;56.144;13.394;2023-06-10T06:18:07;1.10;;;0.30;;
16296;SDS011;8256;56.144;13.394;2023-06-10T06:20:52;1.10;;;0.30;;
16296;SDS011;8256;56.144;13.394;2023-06-10T06:23:38;1.20;;;0.30;;
16296;SDS011;8256;56.144;13.394;2023-06-10T06:26:23;1.40;;;0.30;;
16296;SDS011;8256;56.144;13.394;2023-06-10T06:29:09;1.10;;;0.22;;
16296;SDS011;8256;56.144;13.394;2023-06-10T06:31:54;1.10;;;0.30;;
16296;SDS011;8256;56.144;13.394;2023-06-10T06:34:40;1.45;;;0.40;;
16296;SDS011;8256;56.144;13.394;2023-06-10T06:37:26;1.38;;;0.38;;
16296;SDS011;8256;56.144;13.394;2023-06-10T06:40:11;1.10;;;0.30;;
16296;SDS011;8256;56.144;13.394;2023-06-10T06:42:57;2.08;;;0.50;;
16296;SDS011;8256;56.144;13.394;2023-06-10T06:45:43;1.23;;;0.30;;
16296;SDS011;8256;56.144;13.394;2023-06-10T06:48:28;1.20;;;0.30;;
16296;SDS011;8256;56.144;13.394;2023-06-10T06:51:14;1.40;;;0.30;;
16296;SDS011;8256;56.144;13.394;2023-06-10T06:53:59;1.90;;;0.50;;
16296;SDS011;8256;56.144;13.394;2023-06-10T06:56:45;1.30;;;0.30;;
16296;SDS011;8256;56.144;13.394;2023-06-10T06:59:31;1.50;;;0.40;;
16296;SDS011;8256;56.144;13.394;2023-06-10T07:02:16;2.78;;;0.45;;
16296;SDS011;8256;56.144;13.394;2023-06-10T07:05:02;1.20;;;0.30;;
16296;SDS011;8256;56.144;13.394;2023-06-10T07:07:48;1.60;;;0.40;;
16296;SDS011;8256;56.144;13.394;2023-06-10T07:10:40;1.80;;;0.45;;
16296;SDS011;8256;56.144;13.394;2023-06-10T07:13:25;1.40;;;0.30;;
16296;SDS011;8256;56.144;13.394;2023-06-10T07:16:11;2.10;;;0.55;;
16296;SDS011;8256;56.144;13.394;2023-06-10T07:18:56;1.60;;;0.40;;
16296;SDS011;8256;56.144;13.394;2023-06-10T07:21:42;1.40;;;0.30;;
16296;SDS011;8256;56.144;13.394;2023-06-10T07:24:27;1.60;;;0.40;;
16296;SDS011;8256;56.144;13.394;2023-06-10T07:27:13;1.75;;;0.43;;
16296;SDS011;8256;56.144;13.394;2023-06-10T07:29:59;1.90;;;0.50;;
16296;SDS011;8256;56.144;13.394;2023-06-10T07:32:46;1.50;;;0.43;;
16296;SDS011;8256;56.144;13.394;2023-06-10T07:35:31;1.63;;;0.40;;
16296;SDS011;8256;56.144;13.394;2023-06-10T07:38:17;1.77;;;0.47;;
16296;SDS011;8256;56.144;13.394;2023-06-10T07:41:03;1.65;;;0.40;;
16296;SDS011;8256;56.144;13.394;2023-06-10T07:43:48;2.45;;;0.75;;
16296;SDS011;8256;56.144;13.394;2023-06-10T07:46:39;1.75;;;0.50;;
16296;SDS011;8256;56.144;13.394;2023-06-10T07:49:25;2.00;;;0.57;;
16296;SDS011;8256;56.144;13.394;2023-06-10T07:52:10;1.83;;;0.50;;
16296;SDS011;8256;56.144;13.394;2023-06-10T07:54:56;2.05;;;0.60;;
16296;SDS011;8256;56.144;13.394;2023-06-10T07:57:42;1.70;;;0.47;;
16296;SDS011;8256;56.144;13.394;2023-06-10T08:00:27;1.88;;;0.50;;
16296;SDS011;8256;56.144;13.394;2023-06-10T08:03:13;2.07;;;0.50;;
16296;SDS011;8256;56.144;13.394;2023-06-10T08:05:58;1.70;;;0.50;;
16296;SDS011;8256;56.144;13.394;2023-06-10T08:08:44;1.73;;;0.50;;
16296;SDS011;8256;56.144;13.394;2023-06-10T08:11:31;1.80;;;0.50;;
16296;SDS011;8256;56.144;13.394;2023-06-10T08:14:16;2.20;;;0.50;;
16296;SDS011;8256;56.144;13.394;2023-06-10T08:17:02;2.00;;;0.60;;
16296;SDS011;8256;56.144;13.394;2023-06-10T08:19:50;1.75;;;0.47;;
16296;SDS011;8256;56.144;13.394;2023-06-10T08:22:36;1.92;;;0.50;;
16296;SDS011;8256;56.144;13.394;2023-06-10T08:25:21;1.88;;;0.50;;
16296;SDS011;8256;56.144;13.394;2023-06-10T08:28:07;2.20;;;0.60;;
16296;SDS011;8256;56.144;13.394;2023-06-10T08:30:53;2.20;;;0.70;;
16296;SDS011;8256;56.144;13.394;2023-06-10T08:33:38;2.03;;;0.60;;
16296;SDS011;8256;56.144;13.394;2023-06-10T08:36:24;2.20;;;0.75;;
16296;SDS011;8256;56.144;13.394;2023-06-10T08:39:09;2.17;;;0.60;;
16296;SDS011;8256;56.144;13.394;2023-06-10T08:42:00;2.50;;;0.60;;
16296;SDS011;8256;56.144;13.394;2023-06-10T08:44:48;2.00;;;0.50;;
16296;SDS011;8256;56.144;13.394;2023-06-10T08:47:34;2.22;;;0.70;;
16296;SDS011;8256;56.144;13.394;2023-06-10T08:50:23;1.92;;;0.60;;
16296;SDS011;8256;56.144;13.394;2023-06-10T08:53:09;2.95;;;0.70;;
16296;SDS011;8256;56.144;13.394;2023-06-10T08:55:59;2.10;;;0.60;;
16296;SDS011;8256;56.144;13.394;2023-06-10T08:58:46;2.40;;;0.77;;
16296;SDS011;8256;56.144;13.394;2023-06-10T09:01:32;2.10;;;0.60;;
16296;SDS011;8256;56.144;13.394;2023-06-10T09:04:18;2.30;;;0.68;;
16296;SDS011;8256;56.144;13.394;2023-06-10T09:07:04;2.40;;;0.70;;
16296;SDS011;8256;56.144;13.394;2023-06-10T09:09:50;2.03;;;0.60;;
16296;SDS011;8256;56.144;13.394;2023-06-10T09:12:39;2.27;;;0.70;;
16296;SDS011;8256;56.144;13.394;2023-06-10T09:15:24;1.80;;;0.50;;
16296;SDS011;8256;56.144;13.394;2023-06-10T09:18:10;2.78;;;0.93;;
16296;SDS011;8256;56.144;13.394;2023-06-10T09:20:55;2.72;;;0.85;;
16296;SDS011;8256;56.144;13.394;2023-06-10T09:23:41;6.60;;;0.77;;
16296;SDS011;8256;56.144;13.394;2023-06-10T09:26:28;2.40;;;0.70;;
16296;SDS011;8256;56.144;13.394;2023-06-10T09:29:15;2.60;;;0.90;;
16296;SDS011;8256;56.144;13.394;2023-06-10T09:32:00;2.83;;;0.93;;
16296;SDS011;8256;56.144;13.394;2023-06-10T09:34:46;2.58;;;0.80;;
16296;SDS011;8256;56.144;13.394;2023-06-10T09:37:32;2.42;;;0.80;;
16296;SDS011;8256;56.144;13.394;2023-06-10T09:40:18;2.30;;;0.80;;
16296;SDS011;8256;56.144;13.394;2023-06-10T09:43:03;2.65;;;0.90;;
16296;SDS011;8256;56.144;13.394;2023-06-10T09:45:52;2.33;;;0.80;;
16296;SDS011;8256;56.144;13.394;2023-06-10T09:48:42;3.88;;;1.08;;
16296;SDS011;8256;56.144;13.394;2023-06-10T09:51:30;2.50;;;0.90;;
16296;SDS011;8256;56.144;13.394;2023-06-10T09:54:16;2.33;;;0.80;;
16296;SDS011;8256;56.144;13.394;2023-06-10T09:57:02;2.90;;;1.00;;
16296;SDS011;8256;56.144;13.394;2023-06-10T09:59:52;2.70;;;0.90;;
16296;SDS011;8256;56.144;13.394;2023-06-10T10:05:31;2.35;;;0.75;;
16296;SDS011;8256;56.144;13.394;2023-06-10T10:08:16;3.07;;;1.00;;
16296;SDS011;8256;56.144;13.394;2023-06-10T10:11:02;2.45;;;0.80;;
16296;SDS011;8256;56.144;13.394;2023-06-10T10:13:49;3.47;;;1.30;;
16296;SDS011;8256;56.144;13.394;2023-06-10T10:16:40;2.60;;;0.90;;
16296;SDS011;8256;56.144;13.394;2023-06-10T10:19:28;2.63;;;0.90;;
16296;SDS011;8256;56.144;13.394;2023-06-10T10:22:20;3.10;;;1.10;;
16296;SDS011;8256;56.144;13.394;2023-06-10T10:25:10;3.20;;;1.20;;
16296;SDS011;8256;56.144;13.394;2023-06-10T10:28:12;4.35;;;1.13;;
16296;SDS011;8256;56.144;13.394;2023-06-10T10:31:02;3.65;;;1.08;;
16296;SDS011;8256;56.144;13.394;2023-06-10T10:33:54;6.05;;;1.83;;
16296;SDS011;8256;56.144;13.394;2023-06-10T10:36:41;2.97;;;1.20;;
16296;SDS011;8256;56.144;13.394;2023-06-10T10:39:27;3.03;;;1.20;;
16296;SDS011;8256;56.144;13.394;2023-06-10T10:42:13;3.00;;;1.20;;
16296;SDS011;8256;56.144;13.394;2023-06-10T10:44:59;3.10;;;1.35;;
16296;SDS011;8256;56.144;13.394;2023-06-10T10:47:45;14.43;;;2.10;;
16296;SDS011;8256;56.144;13.394;2023-06-10T10:50:31;2.80;;;1.13;;
16296;SDS011;8256;56.144;13.394;2023-06-10T10:53:19;3.00;;;1.15;;
16296;SDS011;8256;56.144;13.394;2023-06-10T10:56:12;3.20;;;1.58;;
16296;SDS011;8256;56.144;13.394;2023-06-10T10:59:02;3.15;;;1.00;;
16296;SDS011;8256;56.144;13.394;2023-06-10T11:01:48;3.20;;;1.17;;
16296;SDS011;8256;56.144;13.394;2023-06-10T11:04:34;3.33;;;1.50;;
16296;SDS011;8256;56.144;13.394;2023-06-10T11:07:20;3.20;;;1.30;;
16296;SDS011;8256;56.144;13.394;2023-06-10T11:10:07;2.90;;;1.20;;
16296;SDS011;8256;56.144;13.394;2023-06-10T11:12:53;3.20;;;1.35;;
16296;SDS011;8256;56.144;13.394;2023-06-10T11:15:43;3.95;;;1.35;;
16296;SDS011;8256;56.144;13.394;2023-06-10T11:18:29;2.80;;;1.00;;
16296;SDS011;8256;56.144;13.394;2023-06-10T11:21:16;2.80;;;1.13;;
16296;SDS011;8256;56.144;13.394;2023-06-10T11:24:11;2.90;;;1.20;;
16296;SDS011;8256;56.144;13.394;2023-06-10T11:27:16;4.47;;;1.35;;
16296;SDS011;8256;56.144;13.394;2023-06-10T11:32:51;3.03;;;1.20;;
16296;SDS011;8256;56.144;13.394;2023-06-10T11:35:38;9.73;;;1.73;;
16296;SDS011;8256;56.144;13.394;2023-06-10T11:38:24;3.40;;;1.30;;
16296;SDS011;8256;56.144;13.394;2023-06-10T11:41:10;2.90;;;1.10;;
16296;SDS011;8256;56.144;13.394;2023-06-10T11:44:09;4.00;;;1.65;;
16296;SDS011;8256;56.144;13.394;2023-06-10T11:46:56;3.00;;;1.20;;
16296;SDS011;8256;56.144;13.394;2023-06-10T11:49:41;10.48;;;2.03;;
16296;SDS011;8256;56.144;13.394;2023-06-10T11:52:28;3.13;;;1.40;;
16296;SDS011;8256;56.144;13.394;2023-06-10T11:55:14;2.80;;;1.15;;
16296;SDS011;8256;56.144;13.394;2023-06-10T11:57:59;2.97;;;1.20;;
16296;SDS011;8256;56.144;13.394;2023-06-10T12:00:49;3.53;;;1.50;;
16296;SDS011;8256;56.144;13.394;2023-06-10T12:03:36;2.88;;;1.17;;
16296;SDS011;8256;56.144;13.394;2023-06-10T12:06:22;3.10;;;1.42;;
16296;SDS011;8256;56.144;13.394;2023-06-10T12:09:15;3.65;;;1.40;;
16296;SDS011;8256;56.144;13.394;2023-06-10T12:12:01;3.30;;;1.55;;
16296;SDS011;8256;56.144;13.394;2023-06-10T12:14:54;3.87;;;2.13;;
16296;SDS011;8256;56.144;13.394;2023-06-10T12:17:42;3.70;;;1.70;;
16296;SDS011;8256;56.144;13.394;2023-06-10T12:20:29;3.55;;;1.80;;
16296;SDS011;8256;56.144;13.394;2023-06-10T12:23:15;3.30;;;1.70;;
16296;SDS011;8256;56.144;13.394;2023-06-10T12:26:00;3.83;;;1.75;;
16296;SDS011;8256;56.144;13.394;2023-06-10T12:28:50;4.47;;;1.67;;
16296;SDS011;8256;56.144;13.394;2023-06-10T12:31:51;3.25;;;1.48;;
16296;SDS011;8256;56.144;13.394;2023-06-10T12:34:38;3.80;;;1.52;;
16296;SDS011;8256;56.144;13.394;2023-06-10T12:37:24;3.88;;;1.40;;
16296;SDS011;8256;56.144;13.394;2023-06-10T12:40:10;3.28;;;1.52;;
16296;SDS011;8256;56.144;13.394;2023-06-10T12:42:56;3.30;;;1.50;;
16296;SDS011;8256;56.144;13.394;2023-06-10T12:45:42;4.60;;;1.73;;
16296;SDS011;8256;56.144;13.394;2023-06-10T12:48:30;3.40;;;1.83;;
16296;SDS011;8256;56.144;13.394;2023-06-10T12:51:15;3.50;;;1.77;;
16296;SDS011;8256;56.144;13.394;2023-06-10T12:54:01;3.60;;;2.15;;
16296;SDS011;8256;56.144;13.394;2023-06-10T12:56:47;4.13;;;2.87;;
16296;SDS011;8256;56.144;13.394;2023-06-10T12:59:33;3.92;;;2.85;;
16296;SDS011;8256;56.144;13.394;2023-06-10T13:02:19;14.52;;;3.53;;
16296;SDS011;8256;56.144;13.394;2023-06-10T13:05:05;5.45;;;3.35;;
16296;SDS011;8256;56.144;13.394;2023-06-10T13:07:50;6.78;;;4.30;;
16296;SDS011;8256;56.144;13.394;2023-06-10T13:10:36;7.60;;;4.77;;
16296;SDS011;8256;56.144;13.394;2023-06-10T13:13:22;5.30;;;4.80;;
16296;SDS011;8256;56.144;13.394;2023-06-10T13:16:08;6.00;;;5.50;;
16296;SDS011;8256;56.144;13.394;2023-06-10T13:18:53;6.40;;;5.90;;
16296;SDS011;8256;56.144;13.394;2023-06-10T13:21:39;7.18;;;6.57;;
16296;SDS011;8256;56.144;13.394;2023-06-10T13:24:24;8.07;;;7.47;;
16296;SDS011;8256;56.144;13.394;2023-06-10T13:27:11;7.82;;;7.22;;
16296;SDS011;8256;56.144;13.394;2023-06-10T13:29:59;8.40;;;7.53;;
16296;SDS011;8256;56.144;13.394;2023-06-10T13:32:45;8.98;;;8.15;;
16296;SDS011;8256;56.144;13.394;2023-06-10T13:35:30;9.05;;;8.35;;
16296;SDS011;8256;56.144;13.394;2023-06-10T13:38:16;8.60;;;8.00;;
16296;SDS011;8256;56.144;13.394;2023-06-10T13:41:01;8.23;;;7.63;;
16296;SDS011;8256;56.144;13.394;2023-06-10T13:43:47;7.90;;;7.25;;
16296;SDS011;8256;56.144;13.394;2023-06-10T13:46:32;9.55;;;8.75;;
16296;SDS011;8256;56.144;13.394;2023-06-10T13:49:18;9.18;;;8.48;;
16296;SDS011;8256;56.144;13.394;2023-06-10T13:52:04;9.47;;;8.77;;
16296;SDS011;8256;56.144;13.394;2023-06-10T13:54:49;8.88;;;8.27;;
16296;SDS011;8256;56.144;13.394;2023-06-10T13:57:35;7.80;;;7.20;;
16296;SDS011;8256;56.144;13.394;2023-06-10T14:00:20;9.75;;;9.00;;
16296;SDS011;8256;56.144;13.394;2023-06-10T14:03:06;10.55;;;9.38;;
16296;SDS011;8256;56.144;13.394;2023-06-10T14:05:52;9.70;;;9.00;;
16296;SDS011;8256;56.144;13.394;2023-06-10T14:08:37;10.23;;;9.32;;
16296;SDS011;8256;56.144;13.394;2023-06-10T14:11:23;11.38;;;10.23;;
16296;SDS011;8256;56.144;13.394;2023-06-10T14:14:08;9.35;;;8.65;;
16296;SDS011;8256;56.144;13.394;2023-06-10T14:16:54;9.63;;;8.93;;
16296;SDS011;8256;56.144;13.394;2023-06-10T14:19:40;10.43;;;9.57;;
16296;SDS011;8256;56.144;13.394;2023-06-10T14:22:25;11.57;;;10.77;;
16296;SDS011;8256;56.144;13.394;2023-06-10T14:25:11;10.52;;;9.82;;
16296;SDS011;8256;56.144;13.394;2023-06-10T14:27:57;11.73;;;10.93;;
16296;SDS011;8256;56.144;13.394;2023-06-10T14:30:43;11.77;;;10.88;;
16296;SDS011;8256;56.144;13.394;2023-06-10T14:33:28;12.77;;;11.97;;
16296;SDS011;8256;56.144;13.394;2023-06-10T14:36:16;12.15;;;11.35;;
16296;SDS011;8256;56.144;13.394;2023-06-10T14:39:01;12.95;;;12.02;;
16296;SDS011;8256;56.144;13.394;2023-06-10T14:41:47;12.82;;;12.02;;
16296;SDS011;8256;56.144;13.394;2023-06-10T14:44:33;11.55;;;10.75;;
16296;SDS011;8256;56.144;13.394;2023-06-10T14:47:18;12.40;;;11.60;;
16296;SDS011;8256;56.144;13.394;2023-06-10T14:50:04;11.70;;;10.90;;
16296;SDS011;8256;56.144;13.394;2023-06-10T14:52:50;11.52;;;10.73;;
16296;SDS011;8256;56.144;13.394;2023-06-10T14:55:35;12.15;;;11.30;;
16296;SDS011;8256;56.144;13.394;2023-06-10T14:58:21;11.68;;;10.88;;
16296;SDS011;8256;56.144;13.394;2023-06-10T15:01:06;11.10;;;10.37;;
16296;SDS011;8256;56.144;13.394;2023-06-10T15:03:52;10.40;;;9.45;;
16296;SDS011;8256;56.144;13.394;2023-06-10T15:06:38;11.25;;;10.45;;
16296;SDS011;8256;56.144;13.394;2023-06-10T15:09:23;11.85;;;11.00;;
16296;SDS011;8256;56.144;13.394;2023-06-10T15:12:09;13.07;;;11.10;;
16296;SDS011;8256;56.144;13.394;2023-06-10T15:14:56;14.40;;;13.02;;
16296;SDS011;8256;56.144;13.394;2023-06-10T15:17:41;14.25;;;13.18;;
16296;SDS011;8256;56.144;13.394;2023-06-10T15:20:27;14.32;;;13.13;;
16296;SDS011;8256;56.144;13.394;2023-06-10T15:23:12;13.90;;;13.00;;
16296;SDS011;8256;56.144;13.394;2023-06-10T15:25:58;12.25;;;11.45;;
16296;SDS011;8256;56.144;13.394;2023-06-10T15:28:43;13.57;;;12.70;;
16296;SDS011;8256;56.144;13.394;2023-06-10T15:31:30;13.95;;;12.85;;
16296;SDS011;8256;56.144;13.394;2023-06-10T15:34:16;13.20;;;12.30;;
16296;SDS011;8256;56.144;13.394;2023-06-10T15:37:02;13.20;;;12.32;;
16296;SDS011;8256;56.144;13.394;2023-06-10T15:39:48;12.95;;;12.15;;
16296;SDS011;8256;56.144;13.394;2023-06-10T15:42:33;12.07;;;11.27;;
16296;SDS011;8256;56.144;13.394;2023-06-10T15:45:19;12.07;;;11.27;;
16296;SDS011;8256;56.144;13.394;2023-06-10T15:48:05;12.40;;;11.60;;
16296;SDS011;8256;56.144;13.394;2023-06-10T15:50:50;12.82;;;12.00;;
16296;SDS011;8256;56.144;13.394;2023-06-10T15:53:36;13.18;;;12.00;;
16296;SDS011;8256;56.144;13.394;2023-06-10T15:56:22;14.15;;;13.25;;
16296;SDS011;8256;56.144;13.394;2023-06-10T15:59:08;15.02;;;14.13;;
16296;SDS011;8256;56.144;13.394;2023-06-10T16:01:54;14.68;;;13.77;;
16296;SDS011;8256;56.144;13.394;2023-06-10T16:04:40;14.95;;;13.85;;
16296;SDS011;8256;56.144;13.394;2023-06-10T16:07:25;14.05;;;13.15;;
16296;SDS011;8256;56.144;13.394;2023-06-10T16:10:11;14.18;;;13.27;;
16296;SDS011;8256;56.144;13.394;2023-06-10T16:12:56;12.88;;;12.07;;
16296;SDS011;8256;56.144;13.394;2023-06-10T16:15:42;12.27;;;11.48;;
16296;SDS011;8256;56.144;13.394;2023-06-10T16:18:28;13.18;;;12.27;;
16296;SDS011;8256;56.144;13.394;2023-06-10T16:21:14;12.30;;;11.48;;
16296;SDS011;8256;56.144;13.394;2023-06-10T16:23:59;12.87;;;11.70;;
16296;SDS011;8256;56.144;13.394;2023-06-10T16:26:45;11.35;;;10.65;;
16296;SDS011;8256;56.144;13.394;2023-06-10T16:29:33;11.68;;;10.77;;
16296;SDS011;8256;56.144;13.394;2023-06-10T16:32:19;11.02;;;10.23;;
16296;SDS011;8256;56.144;13.394;2023-06-10T16:35:04;12.13;;;11.32;;
16296;SDS011;8256;56.144;13.394;2023-06-10T16:37:50;8.93;;;8.33;;
16296;SDS011;8256;56.144;13.394;2023-06-10T16:40:36;9.27;;;8.60;;
16296;SDS011;8256;56.144;13.394;2023-06-10T16:43:21;9.75;;;9.05;;
16296;SDS011;8256;56.144;13.394;2023-06-10T16:46:08;9.23;;;8.27;;
16296;SDS011;8256;56.144;13.394;2023-06-10T16:48:54;8.38;;;7.78;;
16296;SDS011;8256;56.144;13.394;2023-06-10T16:51:39;9.67;;;8.97;;